Time;durP1;ratioP1;P1;durP2;ratioP2;P2;SDS_P1;SDS_P2;PMS_P1;PMS_P2;Temp;Humidity;BMP_temperature;BMP_pressure;BME280_temperature;BME280_humidity;BME280_pressure;Samples;Min_cycle;Max_cycle;Signal;HPM_P1;HPM_P2
2022/04/04 00:00:18;;;;;;;5.10;2.50;;;4.20;99.90;;;;;;5093997;28;20055;-35
2022/04/04 00:02:44;;;;;;;3.70;2.08;;;4.20;99.90;;;;;;5093081;28;20388;-36
2022/04/04 00:05:11;;;;;;;3.50;2.10;;;4.20;99.90;;;;;;5096140;28;20067;-35
2022/04/04 00:07:38;;;;;;;4.35;2.55;;;4.20;99.90;;;;;;5092417;28;20399;-35
2022/04/04 00:10:04;;;;;;;4.82;2.67;;;4.20;99.90;;;;;;5107370;28;20500;-36
2022/04/04 00:12:30;;;;;;;6.43;3.15;;;4.20;99.90;;;;;;5100748;28;20047;-47
2022/04/04 00:14:56;;;;;;;4.20;2.60;;;4.20;99.90;;;;;;5111699;28;20023;-36
2022/04/04 00:17:22;;;;;;;11.93;4.00;;;4.20;99.90;;;;;;5111424;28;20602;-36
2022/04/04 00:19:48;;;;;;;5.43;3.55;;;4.30;99.90;;;;;;5094151;28;20501;-36
2022/04/04 00:22:14;;;;;;;6.50;3.92;;;4.30;99.90;;;;;;5096719;28;20035;-36
2022/04/04 00:24:40;;;;;;;13.75;4.43;;;4.30;99.90;;;;;;5097551;28;20019;-36
2022/04/04 00:27:06;;;;;;;5.38;3.67;;;4.30;99.90;;;;;;5113595;28;20098;-35
2022/04/04 00:29:31;;;;;;;9.82;4.63;;;4.30;99.90;;;;;;5108692;28;20475;-37
2022/04/04 00:31:57;;;;;;;6.20;4.15;;;4.20;99.90;;;;;;5094904;28;20047;-38
2022/04/04 00:34:23;;;;;;;5.88;4.25;;;4.30;99.90;;;;;;5102387;28;20024;-62
2022/04/04 00:36:48;;;;;;;8.40;4.00;;;4.30;99.90;;;;;;5091227;28;20024;-38
2022/04/04 00:39:16;;;;;;;9.00;4.32;;;4.30;99.90;;;;;;5092664;28;20116;-36
2022/04/04 00:41:44;;;;;;;6.93;4.47;;;4.30;99.90;;;;;;5090443;28;20043;-36
2022/04/04 00:44:10;;;;;;;12.55;4.78;;;4.30;99.90;;;;;;5092315;28;20039;-37
2022/04/04 00:46:41;;;;;;;8.15;4.57;;;4.30;99.90;;;;;;5092268;28;20024;-38
2022/04/04 00:49:07;;;;;;;9.40;3.92;;;4.30;99.90;;;;;;5092893;28;20024;-34
2022/04/04 00:51:33;;;;;;;7.80;4.18;;;4.30;99.90;;;;;;5090171;28;20089;-35
2022/04/04 00:53:59;;;;;;;8.40;4.10;;;4.30;99.90;;;;;;5092424;28;20028;-36
2022/04/04 00:56:30;;;;;;;6.47;4.25;;;4.30;99.90;;;;;;5092233;28;20039;-37
2022/04/04 00:58:56;;;;;;;6.78;4.18;;;4.20;99.90;;;;;;5092681;28;20472;-37
2022/04/04 01:01:22;;;;;;;15.07;4.60;;;4.20;99.90;;;;;;5090520;28;20040;-44
2022/04/04 01:03:48;;;;;;;6.18;4.22;;;4.20;99.90;;;;;;5092386;28;20032;-37
2022/04/04 01:06:13;;;;;;;5.63;3.80;;;4.20;99.90;;;;;;5092288;28;20028;-37
2022/04/04 01:08:40;;;;;;;6.20;3.67;;;4.20;99.90;;;;;;5092159;28;20028;-32
2022/04/04 01:11:06;;;;;;;6.82;3.78;;;4.20;99.90;;;;;;5091813;28;20044;-31
2022/04/04 01:13:31;;;;;;;6.63;4.05;;;4.20;99.90;;;;;;5092249;28;20035;-31
2022/04/04 01:15:57;;;;;;;7.47;3.90;;;4.20;99.90;;;;;;5092114;28;20028;-29
2022/04/04 01:18:23;;;;;;;5.50;4.15;;;4.30;99.90;;;;;;5092647;28;20067;-32
2022/04/04 01:20:50;;;;;;;7.03;3.80;;;4.20;99.90;;;;;;5096120;28;20028;-38
2022/04/04 01:23:22;;;;;;;5.63;3.35;;;4.30;99.90;;;;;;5095251;28;20032;-37
2022/04/04 01:25:48;;;;;;;6.90;4.07;;;4.30;99.90;;;;;;5095340;28;20543;-38
2022/04/04 01:28:13;;;;;;;5.70;3.63;;;4.30;99.90;;;;;;5095704;28;20058;-36
2022/04/04 01:30:39;;;;;;;6.07;4.18;;;4.30;99.90;;;;;;5095706;28;20437;-36
2022/04/04 01:33:05;;;;;;;5.43;4.00;;;4.30;99.90;;;;;;5095695;28;20016;-37
2022/04/04 01:35:30;;;;;;;5.30;4.13;;;4.40;99.90;;;;;;5095794;28;20032;-70
2022/04/04 01:37:56;;;;;;;4.95;3.50;;;4.40;99.90;;;;;;5095766;28;20365;-29
2022/04/04 01:40:22;;;;;;;5.65;3.55;;;4.40;99.90;;;;;;5095536;28;20028;-46
2022/04/04 01:42:51;;;;;;;6.85;4.22;;;4.30;99.90;;;;;;5095614;28;20479;-33
2022/04/04 01:45:16;;;;;;;5.65;3.65;;;4.40;99.90;;;;;;5095334;28;20028;-30
2022/04/04 01:47:42;;;;;;;12.30;4.03;;;4.40;99.90;;;;;;5095200;28;20456;-41
2022/04/04 01:50:08;;;;;;;7.10;3.80;;;4.50;99.90;;;;;;5095331;28;20023;-33
2022/04/04 01:52:34;;;;;;;3.67;2.85;;;4.60;99.90;;;;;;5094857;28;20467;-32
2022/04/04 01:54:59;;;;;;;8.40;3.95;;;4.70;99.90;;;;;;5095042;28;20078;-31
2022/04/04 01:57:25;;;;;;;5.85;3.60;;;4.70;99.90;;;;;;5095238;28;20035;-33
2022/04/04 01:59:50;;;;;;;9.52;4.20;;;4.70;99.90;;;;;;5095043;28;20028;-36
2022/04/04 02:02:16;;;;;;;6.13;3.35;;;4.70;99.90;;;;;;5094624;28;20031;-37
2022/04/04 02:04:42;;;;;;;7.28;3.88;;;4.70;99.90;;;;;;5095235;28;20114;-37
2022/04/04 02:07:07;;;;;;;6.85;3.70;;;4.70;99.90;;;;;;5094808;28;20035;-34
2022/04/04 02:09:34;;;;;;;7.22;3.97;;;4.80;99.90;;;;;;5095325;28;20111;-36
2022/04/04 02:12:00;;;;;;;5.90;3.67;;;4.80;99.90;;;;;;5094662;28;20089;-35
2022/04/04 02:14:25;;;;;;;5.68;4.10;;;4.90;99.90;;;;;;5094169;28;20103;-35
2022/04/04 02:16:51;;;;;;;11.45;4.95;;;4.90;99.90;;;;;;5094708;28;20012;-35
2022/04/04 02:19:17;;;;;;;10.80;4.32;;;4.80;99.90;;;;;;5094547;28;20464;-36
2022/04/04 02:21:44;;;;;;;7.10;4.55;;;4.80;99.90;;;;;;5095012;28;20115;-35
2022/04/04 02:24:10;;;;;;;9.85;4.05;;;4.90;99.90;;;;;;5094348;28;20387;-34
2022/04/04 02:26:35;;;;;;;6.57;4.30;;;4.90;99.90;;;;;;5094884;28;20024;-35
2022/04/04 02:29:01;;;;;;;8.00;4.47;;;4.90;99.90;;;;;;5094243;28;20063;-39
2022/04/04 02:31:26;;;;;;;10.95;5.57;;;5.00;99.90;;;;;;5093220;28;20039;-41
2022/04/04 02:33:52;;;;;;;7.90;4.68;;;5.00;99.90;;;;;;5093392;28;20032;-35
2022/04/04 02:36:21;;;;;;;9.35;4.95;;;5.00;99.90;;;;;;5094648;28;20043;-37
2022/04/04 02:38:47;;;;;;;14.45;5.88;;;5.00;99.90;;;;;;5093794;28;20062;-34
2022/04/04 02:41:13;;;;;;;7.88;4.63;;;5.00;99.90;;;;;;5094680;28;20032;-35
2022/04/04 02:43:39;;;;;;;8.43;4.75;;;5.00;99.90;;;;;;5094051;28;20071;-35
2022/04/04 02:46:05;;;;;;;14.23;5.30;;;5.00;99.90;;;;;;5094175;28;20047;-35
2022/04/04 02:48:50;;;;;;;9.57;4.68;;;5.00;99.90;;;;;;5094554;28;20028;-36
2022/04/04 02:51:15;;;;;;;9.43;4.75;;;5.00;99.90;;;;;;5094156;28;20078;-34
2022/04/04 02:53:41;;;;;;;10.50;5.60;;;5.00;99.90;;;;;;5094013;28;20056;-35
2022/04/04 02:58:50;;;;;;;8.88;5.10;;;5.10;99.90;;;;;;5093602;28;20442;-35
2022/04/04 03:01:18;;;;;;;9.63;4.55;;;5.10;99.90;;;;;;5093776;28;20031;-35
2022/04/04 03:03:44;;;;;;;9.85;5.32;;;5.10;99.90;;;;;;5092872;28;20132;-34
2022/04/04 03:06:09;;;;;;;9.77;4.68;;;5.10;99.90;;;;;;5094076;28;20107;-34
2022/04/04 03:08:38;;;;;;;12.82;5.10;;;5.20;99.90;;;;;;5093384;28;20031;-35
2022/04/04 03:11:04;;;;;;;8.57;5.78;;;5.20;99.90;;;;;;5093502;28;20040;-36
2022/04/04 03:13:29;;;;;;;9.20;4.70;;;5.20;99.90;;;;;;5093367;28;20102;-37
2022/04/04 03:15:55;;;;;;;7.28;4.75;;;5.30;99.90;;;;;;5093581;28;20023;-35
2022/04/04 03:18:20;;;;;;;10.68;5.07;;;5.30;99.90;;;;;;5093623;28;20059;-37
2022/04/04 03:20:46;;;;;;;7.90;4.68;;;5.20;99.90;;;;;;5093820;28;20203;-35
2022/04/04 03:23:12;;;;;;;7.93;3.80;;;5.30;99.90;;;;;;5092950;28;20103;-34
2022/04/04 03:25:38;;;;;;;8.82;3.97;;;5.30;99.90;;;;;;5091961;28;20032;-36
2022/04/04 03:28:04;;;;;;;8.13;4.22;;;5.40;99.90;;;;;;5093583;28;20595;-35
2022/04/04 03:30:29;;;;;;;6.13;4.63;;;5.30;99.90;;;;;;5093473;28;20024;-35
2022/04/04 03:32:57;;;;;;;5.78;3.35;;;5.30;99.90;;;;;;5092951;28;20028;-36
2022/04/04 03:35:24;;;;;;;7.55;3.42;;;5.30;99.90;;;;;;5093787;28;20021;-36
2022/04/04 03:37:52;;;;;;;7.15;4.50;;;5.40;99.90;;;;;;5093493;28;20521;-37
2022/04/04 03:40:19;;;;;;;6.65;3.92;;;5.40;99.90;;;;;;5093652;28;20538;-41
2022/04/04 03:42:47;;;;;;;7.97;4.03;;;5.30;99.90;;;;;;5074587;28;20043;-68
2022/04/04 03:45:14;;;;;;;9.40;4.05;;;5.40;99.90;;;;;;5093237;28;20042;-36
2022/04/04 03:47:41;;;;;;;5.55;3.88;;;5.40;99.90;;;;;;5093274;28;20444;-37
2022/04/04 03:50:08;;;;;;;7.82;4.30;;;5.40;99.90;;;;;;5088158;28;20127;-37
2022/04/04 03:52:34;;;;;;;10.93;4.30;;;5.30;99.90;;;;;;5091795;28;20032;-36
2022/04/04 03:55:01;;;;;;;8.35;3.97;;;5.40;99.90;;;;;;5091875;28;20073;-36
2022/04/04 03:57:27;;;;;;;4.53;3.40;;;5.40;99.90;;;;;;5092765;28;20032;-36
2022/04/04 03:59:53;;;;;;;8.32;3.90;;;5.40;99.90;;;;;;5093149;28;20476;-36
2022/04/04 04:02:19;;;;;;;6.95;4.43;;;5.40;99.90;;;;;;5092378;28;20089;-36
2022/04/04 04:04:44;;;;;;;11.43;4.07;;;5.40;99.90;;;;;;5093043;28;20081;-36
2022/04/04 04:07:10;;;;;;;6.78;3.83;;;5.40;99.90;;;;;;5093283;28;20039;-35
2022/04/04 04:09:36;;;;;;;6.18;4.05;;;5.50;99.90;;;;;;5093090;28;20107;-36
2022/04/04 04:12:02;;;;;;;3.72;3.13;;;5.50;99.90;;;;;;5092441;28;20124;-36
2022/04/04 04:14:28;;;;;;;7.85;3.95;;;5.50;99.90;;;;;;5090037;28;20035;-43
2022/04/04 04:16:54;;;;;;;8.38;3.85;;;5.50;99.90;;;;;;5092541;28;20020;-36
2022/04/04 04:22:04;;;;;;;7.45;3.60;;;5.60;99.90;;;;;;5093296;28;20115;-36
2022/04/04 04:24:29;;;;;;;10.20;3.83;;;5.60;99.90;;;;;;5092635;28;20035;-37
2022/04/04 04:26:55;;;;;;;10.88;3.92;;;5.60;99.90;;;;;;5092942;28;20476;-37
2022/04/04 04:29:20;;;;;;;9.75;4.18;;;5.60;99.90;;;;;;5093083;28;20048;-36
2022/04/04 04:31:46;;;;;;;8.95;3.60;;;5.70;99.90;;;;;;5092774;28;20024;-36
2022/04/04 04:34:12;;;;;;;9.00;4.18;;;5.70;99.90;;;;;;5092761;28;20020;-35
2022/04/04 04:36:39;;;;;;;7.88;4.13;;;5.60;99.90;;;;;;5092586;28;20028;-36
2022/04/04 04:39:09;;;;;;;8.13;4.20;;;5.70;99.90;;;;;;5092700;28;20392;-37
2022/04/04 04:41:35;;;;;;;8.25;3.75;;;5.80;99.90;;;;;;5092653;28;20372;-37
2022/04/04 04:44:05;;;;;;;7.93;4.10;;;5.80;99.90;;;;;;5091936;28;20057;-35
2022/04/04 04:46:31;;;;;;;6.68;3.75;;;5.80;99.90;;;;;;5092856;28;20157;-38
2022/04/04 04:48:57;;;;;;;17.63;4.28;;;5.80;99.90;;;;;;5092640;28;20410;-63
2022/04/04 04:51:23;;;;;;;6.72;4.50;;;5.80;99.90;;;;;;5091338;28;20403;-36
2022/04/04 04:53:49;;;;;;;6.53;3.58;;;5.90;99.90;;;;;;5093320;28;20103;-36
2022/04/04 04:56:14;;;;;;;7.25;3.45;;;5.90;99.90;;;;;;5096229;28;20472;-35
2022/04/04 04:58:40;;;;;;;8.35;3.65;;;5.90;99.90;;;;;;5095978;28;20063;-36
2022/04/04 05:01:06;;;;;;;6.30;4.03;;;5.90;99.90;;;;;;5094642;28;20027;-33
2022/04/04 05:03:32;;;;;;;9.27;3.97;;;5.90;99.90;;;;;;5095558;28;20467;-32
2022/04/04 05:05:57;;;;;;;8.65;3.40;;;5.90;99.90;;;;;;5095387;28;20517;-43
2022/04/04 05:08:23;;;;;;;10.90;4.47;;;6.00;99.90;;;;;;5095909;28;20451;-36
2022/04/04 05:10:49;;;;;;;12.02;3.97;;;6.00;99.90;;;;;;5095428;28;20491;-35
2022/04/04 05:13:14;;;;;;;7.00;3.78;;;6.00;99.90;;;;;;5095273;28;20047;-35
2022/04/04 05:15:40;;;;;;;5.57;3.05;;;6.00;99.90;;;;;;5095589;28;20020;-36
2022/04/04 05:18:06;;;;;;;5.57;3.60;;;6.10;99.90;;;;;;5094187;28;20483;-36
2022/04/04 05:20:32;;;;;;;6.07;3.38;;;6.10;99.90;;;;;;5095623;28;20020;-36
2022/04/04 05:22:57;;;;;;;8.40;4.18;;;6.10;99.90;;;;;;5095393;28;20035;-35
2022/04/04 05:25:23;;;;;;;5.55;3.72;;;6.10;99.90;;;;;;5095501;28;20028;-36
2022/04/04 05:27:50;;;;;;;8.18;3.85;;;6.00;99.90;;;;;;5096104;28;20052;-36
2022/04/04 05:30:17;;;;;;;6.85;3.80;;;6.00;99.90;;;;;;5095742;28;20030;-36
2022/04/04 05:32:43;;;;;;;14.05;5.30;;;6.00;99.90;;;;;;5095423;28;20039;-35
2022/04/04 05:35:12;;;;;;;12.73;5.72;;;6.00;99.90;;;;;;5093978;28;20032;-38
2022/04/04 05:37:38;;;;;;;23.13;8.20;;;6.10;99.90;;;;;;5095700;28;20463;-37
2022/04/04 05:40:04;;;;;;;16.40;6.88;;;6.00;99.90;;;;;;5095696;28;20069;-37
2022/04/04 05:42:31;;;;;;;10.95;5.25;;;6.00;99.90;;;;;;5095151;28;20522;-36
2022/04/04 05:44:57;;;;;;;10.70;4.28;;;6.10;99.90;;;;;;5095467;28;20077;-75
2022/04/04 05:47:22;;;;;;;7.68;4.35;;;6.10;99.90;;;;;;5095613;28;20028;-35
2022/04/04 05:49:51;;;;;;;6.40;4.25;;;6.10;99.90;;;;;;5095510;28;20119;-37
2022/04/04 05:52:20;;;;;;;12.82;4.63;;;6.10;99.90;;;;;;5095231;28;20500;-45
2022/04/04 05:54:57;;;;;;;10.75;4.78;;;6.20;99.90;;;;;;5094820;28;20464;-35
2022/04/04 05:57:24;;;;;;;12.82;4.85;;;6.20;99.90;;;;;;5094953;28;20028;-56
2022/04/04 05:59:51;;;;;;;10.05;5.05;;;6.30;99.90;;;;;;5095069;28;20051;-37
2022/04/04 06:02:16;;;;;;;7.03;4.80;;;6.30;99.90;;;;;;5095421;28;20496;-36
2022/04/04 06:04:42;;;;;;;7.15;4.97;;;6.40;99.90;;;;;;5094616;28;20035;-35
2022/04/04 06:07:08;;;;;;;15.88;5.55;;;6.40;99.90;;;;;;5094958;28;20024;-36
2022/04/04 06:09:33;;;;;;;11.45;4.90;;;6.40;99.90;;;;;;5095139;28;20035;-38
2022/04/04 06:11:59;;;;;;;13.00;4.70;;;6.50;99.90;;;;;;5094752;28;20051;-37
2022/04/04 06:14:25;;;;;;;7.65;4.95;;;6.50;99.90;;;;;;5094881;28;20028;-36
2022/04/04 06:16:50;;;;;;;12.70;5.45;;;6.50;99.90;;;;;;5094730;28;20024;-36
2022/04/04 06:19:16;;;;;;;15.35;5.28;;;6.60;99.90;;;;;;5094627;28;20051;-35
2022/04/04 06:21:42;;;;;;;10.82;4.55;;;6.70;99.90;;;;;;5094870;28;20028;-37
2022/04/04 06:24:08;;;;;;;19.05;5.43;;;6.70;99.90;;;;;;5091891;28;20051;-33
2022/04/04 06:26:34;;;;;;;11.73;5.00;;;6.70;99.90;;;;;;5099526;28;20050;-37
2022/04/04 06:28:59;;;;;;;11.88;5.28;;;6.70;99.90;;;;;;5108467;28;20487;-36
2022/04/04 06:31:25;;;;;;;7.10;4.97;;;6.70;99.90;;;;;;5094625;28;20032;-36
2022/04/04 06:33:51;;;;;;;6.80;4.75;;;6.80;99.90;;;;;;5095819;28;20047;-36
2022/04/04 06:36:16;;;;;;;9.65;4.60;;;6.90;99.90;;;;;;5094643;28;20027;-35
2022/04/04 06:38:42;;;;;;;7.35;5.07;;;6.90;99.90;;;;;;5101230;28;20024;-40
2022/04/04 06:41:08;;;;;;;11.30;5.40;;;6.90;99.90;;;;;;5093277;28;20491;-50
2022/04/04 06:43:33;;;;;;;9.93;4.93;;;6.80;99.90;;;;;;5092956;28;20032;-37
2022/04/04 06:46:02;;;;;;;8.90;5.05;;;6.80;99.90;;;;;;5099405;28;20024;-38
2022/04/04 06:48:28;;;;;;;7.18;5.30;;;6.90;99.90;;;;;;5102890;28;20032;-53
2022/04/04 06:50:53;;;;;;;9.05;4.90;;;6.80;99.90;;;;;;5091905;28;20035;-35
2022/04/04 06:53:21;;;;;;;8.02;4.88;;;6.70;99.90;;;;;;5091650;28;20031;-36
2022/04/04 06:55:47;;;;;;;6.82;4.38;;;6.70;99.90;;;;;;5092800;28;20048;-35
2022/04/04 06:58:13;;;;;;;7.25;5.15;;;6.70;99.90;;;;;;5094153;28;20044;-36
2022/04/04 07:00:39;;;;;;;8.90;5.10;;;6.70;99.90;;;;;;5093797;28;20020;-36
2022/04/04 07:03:07;;;;;;;13.38;5.60;;;6.80;99.90;;;;;;5092764;28;20114;-36
2022/04/04 07:05:33;;;;;;;8.98;4.97;;;6.80;99.90;;;;;;5091749;28;20054;-36
2022/04/04 07:07:58;;;;;;;9.07;4.47;;;6.80;99.90;;;;;;5094108;28;20024;-36
2022/04/04 07:10:24;;;;;;;9.38;5.43;;;6.80;99.90;;;;;;5093807;28;20028;-36
2022/04/04 07:12:50;;;;;;;9.68;4.38;;;6.80;99.90;;;;;;5093396;28;20044;-36
2022/04/04 07:15:15;;;;;;;15.73;5.05;;;6.80;99.90;;;;;;5094319;28;20024;-35
2022/04/04 07:17:43;;;;;;;9.57;5.00;;;6.80;99.90;;;;;;5093385;28;20024;-36
2022/04/04 07:20:09;;;;;;;10.07;4.47;;;6.80;99.90;;;;;;5093254;28;20020;-30
2022/04/04 07:22:40;;;;;;;11.63;4.90;;;6.70;99.90;;;;;;5092113;28;20074;-28
2022/04/04 07:25:07;;;;;;;10.63;5.03;;;6.70;99.90;;;;;;5093848;28;20039;-28
2022/04/04 07:27:37;;;;;;;6.72;4.75;;;6.60;99.90;;;;;;5092965;28;20104;-49
2022/04/04 07:30:03;;;;;;;9.10;4.57;;;6.60;99.90;;;;;;5075626;28;20044;-29
2022/04/04 07:32:28;;;;;;;5.35;4.32;;;6.60;99.90;;;;;;5093704;28;20573;-30
2022/04/04 07:34:54;;;;;;;8.45;4.80;;;6.60;99.90;;;;;;5093174;28;20051;-44
2022/04/04 07:37:20;;;;;;;9.68;5.60;;;6.50;99.90;;;;;;5090287;28;20016;-36
2022/04/04 07:39:46;;;;;;;9.27;5.30;;;6.50;99.90;;;;;;5096255;28;20031;-35
2022/04/04 07:42:13;;;;;;;12.95;4.85;;;6.40;99.90;;;;;;5093557;28;20357;-37
2022/04/04 07:44:39;;;;;;;12.80;5.22;;;6.40;99.90;;;;;;5095024;28;20023;-32
2022/04/04 07:47:05;;;;;;;15.23;5.68;;;6.40;99.90;;;;;;5091740;28;20020;-42
2022/04/04 07:49:31;;;;;;;7.00;5.30;;;6.40;99.90;;;;;;5092124;28;20028;-64
2022/04/04 07:51:56;;;;;;;8.93;5.18;;;6.40;99.90;;;;;;5090087;28;20023;-37
2022/04/04 07:54:22;;;;;;;9.73;5.60;;;6.40;99.90;;;;;;5092461;28;20024;-35
2022/04/04 07:56:47;;;;;;;9.30;4.85;;;6.40;99.90;;;;;;5087897;28;20069;-35
2022/04/04 07:59:13;;;;;;;14.30;5.35;;;6.40;99.90;;;;;;5087885;28;20028;-35
2022/04/04 08:01:39;;;;;;;14.32;7.75;;;6.40;99.90;;;;;;5087001;28;20051;-35
2022/04/04 08:04:04;;;;;;;13.27;6.22;;;6.30;99.90;;;;;;5087721;28;20105;-36
2022/04/04 08:06:30;;;;;;;10.90;5.43;;;6.40;99.90;;;;;;5089983;28;20023;-36
2022/04/04 08:08:56;;;;;;;11.73;5.95;;;6.40;99.90;;;;;;5092057;28;20412;-28
2022/04/04 08:11:22;;;;;;;11.52;6.28;;;6.40;99.90;;;;;;5091091;28;20023;-31
2022/04/04 08:13:48;;;;;;;9.63;6.15;;;6.50;99.90;;;;;;5092412;28;20567;-29
2022/04/04 08:16:13;;;;;;;9.15;5.35;;;6.50;99.90;;;;;;5095105;28;20028;-30
2022/04/04 08:18:39;;;;;;;13.48;5.78;;;6.50;99.90;;;;;;5091139;28;20027;-29
2022/04/04 08:21:05;;;;;;;9.75;4.38;;;6.50;99.90;;;;;;5090986;28;20028;-32
2022/04/04 08:23:31;;;;;;;7.68;4.00;;;6.50;99.90;;;;;;5089468;28;20419;-30
2022/04/04 08:25:58;;;;;;;7.15;4.30;;;6.40;99.90;;;;;;5090666;28;20122;-36
2022/04/04 08:28:24;;;;;;;9.77;3.65;;;6.40;99.90;;;;;;5095650;28;20046;-36
2022/04/04 08:30:52;;;;;;;10.82;4.00;;;6.40;99.90;;;;;;5095484;28;20113;-32
2022/04/04 08:33:18;;;;;;;7.20;3.83;;;6.40;99.90;;;;;;5094807;28;20490;-29
2022/04/04 08:35:45;;;;;;;5.72;4.15;;;6.20;99.90;;;;;;5099225;28;20104;-29
2022/04/04 08:38:11;;;;;;;6.65;3.70;;;6.20;99.90;;;;;;5099484;28;20020;-30
2022/04/04 08:40:37;;;;;;;9.25;4.03;;;6.10;99.90;;;;;;5102944;28;20118;-29
2022/04/04 08:43:09;;;;;;;5.35;3.20;;;6.10;99.90;;;;;;5099946;28;20031;-30
2022/04/04 08:45:38;;;;;;;10.93;3.63;;;6.20;99.90;;;;;;5095413;28;20490;-32
2022/04/04 08:48:05;;;;;;;9.10;3.53;;;6.30;99.90;;;;;;5095978;28;20527;-29
2022/04/04 08:50:34;;;;;;;11.70;3.38;;;6.20;99.90;;;;;;5095953;28;20031;-38
2022/04/04 08:53:04;;;;;;;17.77;4.38;;;6.20;99.90;;;;;;5096400;28;20016;-53
2022/04/04 08:55:30;;;;;;;9.18;3.30;;;6.20;99.90;;;;;;5095101;28;20056;-29
2022/04/04 08:57:56;;;;;;;7.10;3.15;;;6.20;99.90;;;;;;5091413;28;20113;-29
2022/04/04 09:00:22;;;;;;;7.53;3.00;;;6.20;99.90;;;;;;5093588;28;20103;-32
2022/04/04 09:03:02;;;;;;;13.35;3.78;;;6.30;99.90;;;;;;5096294;28;20110;-28
2022/04/04 09:05:32;;;;;;;8.60;3.65;;;6.20;99.90;;;;;;5096368;28;20035;-28
2022/04/04 09:08:04;;;;;;;8.27;4.07;;;6.30;99.90;;;;;;5096462;28;20051;-28
2022/04/04 09:10:35;;;;;;;7.63;3.53;;;6.30;99.90;;;;;;5096536;28;20604;-32
2022/04/04 09:13:08;;;;;;;8.90;4.55;;;6.20;99.90;;;;;;5096127;28;20395;-44
2022/04/04 09:15:54;;;;;;;9.68;3.15;;;6.30;99.90;;;;;;5104879;28;20024;-48
2022/04/04 09:18:39;;;;;;;8.60;3.25;;;6.20;99.90;;;;;;5096564;28;20502;-28
2022/04/04 09:21:33;;;;;;;7.35;2.90;;;6.20;99.90;;;;;;5096421;28;20028;-28
2022/04/04 09:24:02;;;;;;;6.80;3.00;;;6.30;99.90;;;;;;5089828;28;20040;-27
2022/04/04 09:26:45;;;;;;;8.80;2.65;;;6.30;99.90;;;;;;5095252;28;20031;-28
2022/04/04 09:29:19;;;;;;;10.35;3.17;;;6.30;99.90;;;;;;5095069;28;20028;-28
2022/04/04 09:32:03;;;;;;;13.75;3.42;;;6.20;99.90;;;;;;5095465;28;20484;-29
2022/04/04 09:34:28;;;;;;;8.27;3.00;;;6.30;99.90;;;;;;5088403;28;20043;-29
2022/04/04 09:36:54;;;;;;;11.00;4.32;;;6.40;99.90;;;;;;5089213;28;20020;-31
2022/04/04 09:39:20;;;;;;;14.50;4.00;;;6.40;99.90;;;;;;5085582;28;20020;-29
2022/04/04 09:41:46;;;;;;;9.48;4.60;;;6.50;99.90;;;;;;5088622;28;20040;-29
2022/04/04 09:44:11;;;;;;;10.30;4.82;;;6.40;99.90;;;;;;5091551;28;20035;-32
2022/04/04 09:46:40;;;;;;;8.00;4.47;;;6.50;99.90;;;;;;5095236;28;20025;-30
2022/04/04 09:49:15;;;;;;;12.75;3.80;;;6.50;99.90;;;;;;5093435;28;20020;-28
2022/04/04 09:51:48;;;;;;;10.50;4.25;;;6.50;99.90;;;;;;5088975;28;20040;-32
2022/04/04 09:54:32;;;;;;;12.30;4.68;;;6.60;99.90;;;;;;5088227;28;20536;-39
2022/04/04 09:57:11;;;;;;;6.63;4.32;;;6.60;99.90;;;;;;5088092;28;20020;-33
2022/04/04 09:59:38;;;;;;;10.73;5.18;;;6.60;99.90;;;;;;5087671;28;20426;-36
2022/04/04 10:02:05;;;;;;;8.45;4.03;;;6.50;99.90;;;;;;5084030;28;20036;-36
2022/04/04 10:04:31;;;;;;;12.90;4.55;;;6.50;99.90;;;;;;5086516;28;20063;-41
2022/04/04 10:07:01;;;;;;;9.38;3.95;;;6.60;99.90;;;;;;5085469;28;20024;-35
2022/04/04 10:09:26;;;;;;;12.77;4.50;;;6.60;99.90;;;;;;5093837;28;20036;-35
2022/04/04 10:11:53;;;;;;;9.95;4.00;;;6.60;99.90;;;;;;5091444;28;20455;-35
2022/04/04 10:14:18;;;;;;;9.02;2.88;;;6.60;99.90;;;;;;5097413;28;20086;-67
2022/04/04 10:16:45;;;;;;;5.03;2.63;;;6.70;99.90;;;;;;5099467;28;20027;-34
2022/04/04 10:19:11;;;;;;;8.45;1.88;;;6.70;99.90;;;;;;5088691;28;20028;-35
2022/04/04 10:21:37;;;;;;;4.65;2.25;;;6.80;99.90;;;;;;5084431;28;20032;-34
2022/04/04 10:24:07;;;;;;;5.35;2.33;;;6.80;99.90;;;;;;5085940;28;20511;-34
2022/04/04 10:26:34;;;;;;;4.50;2.00;;;6.70;99.90;;;;;;5095012;28;20059;-35
2022/04/04 10:29:13;;;;;;;8.00;2.22;;;6.80;99.90;;;;;;5090585;28;20016;-35
2022/04/04 10:31:53;;;;;;;8.48;2.35;;;6.90;99.90;;;;;;5093919;28;20404;-28
2022/04/04 10:34:24;;;;;;;6.18;3.28;;;6.90;99.90;;;;;;5093759;28;20469;-28
2022/04/04 10:37:06;;;;;;;4.85;3.92;;;6.90;99.90;;;;;;5093379;28;20028;-34
2022/04/04 10:39:44;;;;;;;4.93;3.65;;;6.90;99.90;;;;;;5093087;28;20486;-33
2022/04/04 10:42:28;;;;;;;6.95;3.53;;;6.80;99.90;;;;;;5092479;28;20038;-32
2022/04/04 10:45:11;;;;;;;8.55;4.43;;;6.90;99.90;;;;;;5110294;28;20027;-28
2022/04/04 10:47:40;;;;;;;5.30;3.97;;;6.90;99.90;;;;;;5096095;28;20066;-32
2022/04/04 10:50:33;;;;;;;6.32;3.90;;;6.90;99.90;;;;;;5091929;28;20032;-29
2022/04/04 10:53:03;;;;;;;11.15;4.82;;;6.90;99.90;;;;;;5105830;28;20472;-28
2022/04/04 10:55:36;;;;;;;4.38;3.97;;;6.90;99.90;;;;;;5096984;28;20023;-32
2022/04/04 10:58:10;;;;;;;9.30;4.80;;;6.90;99.90;;;;;;5097072;28;20028;-31
2022/04/04 11:01:15;;;;;;;19.98;11.93;;;7.00;99.90;;;;;;5105666;28;20095;-28
2022/04/04 11:03:52;;;;;;;10.95;5.50;;;7.00;99.90;;;;;;5092621;28;20396;-29
2022/04/04 11:09:22;;;;;;;9.55;4.65;;;7.00;99.90;;;;;;5077520;28;20051;-32
2022/04/04 11:12:00;;;;;;;10.98;5.10;;;7.00;99.90;;;;;;5094302;28;20056;-28
2022/04/04 11:14:31;;;;;;;9.15;5.30;;;7.10;99.90;;;;;;5105902;28;20027;-28
2022/04/04 11:17:06;;;;;;;8.32;4.30;;;7.00;99.90;;;;;;5094765;28;20491;-28
2022/04/04 11:19:44;;;;;;;9.02;6.50;;;7.00;99.90;;;;;;5096583;28;20024;-28
2022/04/04 11:22:18;;;;;;;7.30;3.38;;;7.10;99.90;;;;;;5095090;28;20454;-29
2022/04/04 11:24:51;;;;;;;5.13;4.07;;;7.10;99.90;;;;;;5083177;28;20020;-27
2022/04/04 11:27:18;;;;;;;4.72;4.00;;;7.20;99.90;;;;;;5103475;28;20456;-29
2022/04/04 11:29:43;;;;;;;7.75;6.00;;;7.20;99.90;;;;;;5104250;28;20031;-28
2022/04/04 11:32:19;;;;;;;4.55;3.22;;;7.20;99.90;;;;;;5098223;28;20073;-28
2022/04/04 11:34:44;;;;;;;11.23;5.35;;;7.20;99.90;;;;;;5086967;28;20403;-28
2022/04/04 11:37:18;;;;;;;6.15;3.67;;;7.30;99.90;;;;;;5097653;28;20021;-29
2022/04/04 11:39:46;;;;;;;9.93;5.38;;;7.30;99.90;;;;;;5090212;28;20103;-29
2022/04/04 11:42:12;;;;;;;6.05;2.75;;;7.40;99.90;;;;;;5092107;28;20571;-49
2022/04/04 11:44:46;;;;;;;14.85;8.15;;;7.40;99.90;;;;;;5091599;28;20034;-30
2022/04/04 11:47:12;;;;;;;8.18;5.07;;;7.50;99.90;;;;;;5100854;28;20032;-28
2022/04/04 11:49:44;;;;;;;20.65;9.95;;;7.60;99.90;;;;;;5105692;28;20019;-32
2022/04/04 11:52:15;;;;;;;2.70;2.45;;;7.60;99.90;;;;;;5104049;28;20063;-32
2022/04/04 11:54:42;;;;;;;5.18;2.53;;;7.50;99.90;;;;;;5109592;28;20024;-29
2022/04/04 11:57:09;;;;;;;3.42;2.97;;;7.50;99.90;;;;;;5097474;28;20016;-30
2022/04/04 11:59:42;;;;;;;9.88;5.32;;;7.50;99.90;;;;;;5076781;28;20023;-36
2022/04/04 12:02:09;;;;;;;5.45;4.15;;;7.60;99.90;;;;;;5088786;28;20105;-38
2022/04/04 12:04:36;;;;;;;4.10;2.42;;;7.60;99.90;;;;;;5089978;28;20380;-33
2022/04/04 12:07:06;;;;;;;2.53;2.33;;;7.60;99.90;;;;;;5090293;28;20035;-28
2022/04/04 12:09:36;;;;;;;5.50;2.63;;;7.60;99.90;;;;;;5106269;28;20467;-44
2022/04/04 12:12:12;;;;;;;4.85;3.38;;;7.60;99.90;;;;;;5092423;28;20055;-28
2022/04/04 12:14:40;;;;;;;6.22;4.00;;;7.70;99.90;;;;;;5091490;28;20081;-29
2022/04/04 12:17:14;;;;;;;40.50;19.98;;;7.70;99.90;;;;;;5096291;28;20099;-28
2022/04/04 12:19:44;;;;;;;14.07;7.40;;;7.80;99.90;;;;;;5098692;28;20107;-29
2022/04/04 12:24:59;;;;;;;26.20;12.27;;;7.90;99.90;;;;;;5093311;28;20128;-31
2022/04/04 12:27:25;;;;;;;16.63;7.45;;;7.90;99.90;;;;;;5090103;28;20055;-29
2022/04/04 12:29:59;;;;;;;34.53;15.45;;;7.90;99.90;;;;;;5105127;28;20480;-33
2022/04/04 12:32:25;;;;;;;15.73;9.88;;;7.90;99.90;;;;;;5096964;28;20028;-31
2022/04/04 12:35:20;;;;;;;9.65;6.07;;;8.00;99.90;;;;;;5091294;28;20031;-30
2022/04/04 12:37:46;;;;;;;4.35;3.35;;;8.00;99.90;;;;;;5092603;28;20036;-29
2022/04/04 12:40:22;;;;;;;1.90;1.80;;;8.10;99.90;;;;;;5092129;28;20032;-36
2022/04/04 12:42:50;;;;;;;5.63;3.58;;;8.10;99.90;;;;;;5103637;28;20434;-29
2022/04/04 12:45:20;;;;;;;;;;;8.10;99.90;;;;;;5084786;28;20035;-30
2022/04/04 12:48:08;;;;;;;5.40;3.67;;;8.10;99.90;;;;;;5086889;28;19908;-32
2022/04/04 12:50:43;;;;;;;;;;;8.10;99.90;;;;;;5078521;28;20077;-30
2022/04/04 12:53:12;;;;;;;16.30;10.90;;;8.20;99.90;;;;;;5099482;28;19998;-31
2022/04/04 12:55:39;;;;;;;8.30;5.60;;;8.10;99.90;;;;;;5095677;28;20481;-29
2022/04/04 12:58:23;;;;;;;6.00;4.07;;;8.10;99.90;;;;;;5100226;28;20027;-30
2022/04/04 13:00:50;;;;;;;4.25;3.00;;;8.20;99.90;;;;;;5098625;28;20391;-31
2022/04/04 13:03:18;;;;;;;19.25;8.48;;;8.20;99.90;;;;;;5098651;28;20050;-30
2022/04/04 13:05:48;;;;;;;8.68;5.30;;;8.30;99.90;;;;;;5090041;28;20059;-33
2022/04/04 13:08:19;;;;;;;6.95;4.35;;;8.30;99.90;;;;;;5091714;28;20150;-28
2022/04/04 13:11:13;;;;;;;2.20;2.00;;;8.30;99.90;;;;;;5096154;28;20031;-31